Carolyn H — WDI5873 — position and weather

sailwx.info

Track history (hours):
 
Tides and Currents Weather Stations Pressure Air Temp Water Temp Dewpoint Dewpoint Depression Visibility Wind Speed Wind Dir Waves Ship Positions

Carolyn H

Owner: Boyer Towing, Inc., Ketchikan, AK. More information available from US FCC via Universal Licensing System and Coast Guard Vessel Documentation Center.

Last reported at 2017-Oct-17 13:30 UTC. Time now 2017-Oct-17 13:49 UTC.
Position N 47°32' W 122°20'.

Length 21 m; draft 2.2 m.

Type: Towing. MMSI: 367712860.

Date/timePositionNaut miles runAvg speedWind from/ knotsBaromVisibWave heightAir tempDewpointWater temp
2017-Oct-17 13:30N 47°32' W 122°20'0 0.3
2017-Oct-17 13:01N 47°32' W 122°20'0 0.0
2017-Oct-17 12:31N 47°32' W 122°20'0 0.0
2017-Oct-17 12:01N 47°32' W 122°20'0 0.0
2017-Oct-17 11:31N 47°32' W 122°20'0 0.0
2017-Oct-17 11:01N 47°32' W 122°20'0 0.0
2017-Oct-17 10:30N 47°32' W 122°20'0 0.0
2017-Oct-17 10:01N 47°32' W 122°20'0 0.0
2017-Oct-17 09:31N 47°32' W 122°20'0 0.0
2017-Oct-17 09:01N 47°32' W 122°20'0 0.0
2017-Oct-17 08:31N 47°32' W 122°20'0 0.0
2017-Oct-17 08:01N 47°32' W 122°20'0 0.0
2017-Oct-17 07:31N 47°32' W 122°20'0 0.0
2017-Oct-17 07:00N 47°32' W 122°20'0 0.0
2017-Oct-17 06:31N 47°32' W 122°20'0 0.0
2017-Oct-17 06:01N 47°32' W 122°20'0 0.0
2017-Oct-17 05:31N 47°32' W 122°20'0 0.0
2017-Oct-17 05:00N 47°32' W 122°20'0 0.0
2017-Oct-16 22:54N 47°32' W 122°20'0 0.4
2017-Oct-16 22:31N 47°32' W 122°19'0 0.6
2017-Oct-16 22:01N 47°32' W 122°20'0 0.1
2017-Oct-16 21:30N 47°32' W 122°20'0 0.0
2017-Oct-16 21:00N 47°32' W 122°20'  
2017-Oct-13 22:57N 47°32' W 122°20'0 0.2
2017-Oct-13 22:30N 47°32' W 122°20'0 0.0
2017-Oct-13 22:00N 47°32' W 122°20'0 0.4
2017-Oct-13 21:30N 47°32' W 122°19'0 0.2
2017-Oct-13 21:00N 47°32' W 122°19'0 0.9
2017-Oct-13 20:30N 47°32' W 122°20'0 1.0
2017-Oct-13 20:00N 47°32' W 122°19'0 0.7
2017-Oct-13 19:30N 47°32' W 122°20'0 0.0
2017-Oct-13 19:00N 47°32' W 122°20'0 0.4
2017-Oct-13 18:31N 47°32' W 122°19'0 0.4
2017-Oct-13 18:01N 47°32' W 122°20'0 0.4
2017-Oct-13 17:30N 47°32' W 122°19'0 0.7
2017-Oct-13 17:00N 47°32' W 122°20'0 0.6
2017-Oct-13 16:30N 47°32' W 122°19'0 0.5
2017-Oct-13 16:00N 47°32' W 122°20'0 0.1
2017-Oct-13 15:30N 47°32' W 122°20'0 0.0
2017-Oct-13 15:00N 47°32' W 122°20'2 4.2
2017-Oct-13 14:30N 47°34' W 122°21'1 2.3
2017-Oct-13 14:00N 47°35' W 122°21'0 0.0
2017-Oct-13 13:30N 47°35' W 122°21'3 6.0
2017-Oct-13 13:00N 47°32' W 122°20'0 0.4
2017-Oct-13 12:30N 47°32' W 122°20'0 0.0
2017-Oct-12 22:06N 47°32' W 122°20'0 0.8
2017-Oct-12 22:01N 47°32' W 122°20'0 0.1
2017-Oct-12 21:30N 47°32' W 122°20'0 0.1
2017-Oct-12 21:00N 47°32' W 122°20'0 0.2
2017-Oct-12 20:30N 47°32' W 122°20'0 0.1
2017-Oct-12 20:00N 47°32' W 122°20'0 0.1
2017-Oct-12 19:30N 47°32' W 122°20'0 0.0
2017-Oct-12 19:00N 47°32' W 122°20'0 0.5
2017-Oct-12 18:30N 47°32' W 122°19'0 0.5
2017-Oct-12 18:01N 47°32' W 122°20'0 0.0
2017-Oct-12 17:30N 47°32' W 122°20'0 0.0
2017-Oct-12 17:01N 47°32' W 122°20'0 0.1
2017-Oct-12 16:31N 47°32' W 122°20'1 1.7
2017-Oct-12 16:00N 47°33' W 122°20'2 4.0
2017-Oct-12 15:30N 47°35' W 122°22'0 0.9
2017-Oct-12 15:00N 47°34' W 122°21'2 4.7
2017-Oct-12 14:31N 47°32' W 122°20'2 3.4
2017-Oct-12 14:00N 47°34' W 122°21'2 4.4
2017-Oct-12 13:31N 47°36' W 122°23'1 1.6
2017-Oct-12 13:01N 47°35' W 122°22'3 6.8
2017-Oct-12 12:31N 47°32' W 122°20'0 0.0
2017-Oct-11 21:18N 47°32' W 122°20'0 0.4
2017-Oct-11 21:01N 47°32' W 122°20'0 0.0
2017-Oct-10 17:59N 47°32' W 122°20'0 0.5
2017-Oct-10 17:30N 47°32' W 122°19'0 0.1
2017-Oct-10 17:01N 47°32' W 122°19'0 0.5
2017-Oct-10 16:30N 47°32' W 122°20'0 0.0
2017-Oct-10 12:44N 47°32' W 122°20'0 0.0
2017-Oct-10 12:26N 47°32' W 122°20'0 0.7
2017-Oct-10 12:00N 47°32' W 122°20'3 5.6
2017-Oct-10 11:30N 47°35' W 122°22'3 6.8
2017-Oct-10 11:00N 47°38' W 122°25'3 6.6
2017-Oct-10 10:30N 47°40' W 122°28'3 6.5
2017-Oct-10 10:00N 47°43' W 122°28'3 6.8
2017-Oct-10 09:30N 47°47' W 122°28'3 7.0
2017-Oct-10 09:00N 47°50' W 122°29'3 6.6
2017-Oct-10 08:30N 47°53' W 122°30'3 5.5
2017-Oct-10 08:00N 47°55' W 122°33'3 5.1
2017-Oct-10 07:30N 47°57' W 122°36'2 4.6
2017-Oct-10 06:59N 47°59' W 122°38'2 3.8
2017-Oct-10 06:27N 48°01' W 122°39'16 4.6
2017-Oct-10 03:00N 48°11' W 122°57'3 6.9
2017-Oct-10 02:30N 48°11' W 123°02'4 6.8
2017-Oct-10 01:59N 48°10' W 123°07'1 2.7
2017-Oct-10 01:30N 48°10' W 123°09'1 0.8
2017-Oct-10 00:44N 48°09' W 123°09'0 0.0
2017-Oct-10 00:30N 48°09' W 123°09'0 0.0
2017-Oct-09 23:59N 48°09' W 123°09'0 0.0
2017-Oct-09 23:30N 48°09' W 123°09'0 0.0
2017-Oct-09 22:59N 48°09' W 123°09'1 1.2
2017-Oct-09 22:30N 48°10' W 123°09'1 1.1
2017-Oct-09 22:00N 48°10' W 123°08'1 2.6
2017-Oct-09 21:30N 48°11' W 123°07'1 2.4
2017-Oct-09 21:00N 48°11' W 123°05'1 2.3
2017-Oct-09 20:29N 48°10' W 123°03'1 2.0
2017-Oct-09 19:59N 48°11' W 123°02'1 2.3
2017-Oct-09 19:27N 48°11' W 122°60'2 3.4
2017-Oct-09 18:58N 48°11' W 122°57'16 6.0
2017-Oct-09 16:21N 48°03' W 122°37'3 6.8
2017-Oct-09 15:58N 48°00' W 122°36'3 7.1
2017-Oct-09 15:30N 47°57' W 122°33'3 6.9
2017-Oct-09 15:00N 47°55' W 122°29'3 6.2
2017-Oct-09 14:30N 47°52' W 122°28'3 5.4
2017-Oct-09 14:00N 47°50' W 122°27'3 5.8
2017-Oct-09 13:30N 47°47' W 122°26'3 5.4
2017-Oct-09 13:00N 47°44' W 122°27'3 5.2
2017-Oct-09 12:30N 47°43' W 122°31'1 1.9
2017-Oct-09 12:00N 47°43' W 122°32'0 0.0
2017-Oct-09 11:30N 47°43' W 122°32'0 0.0
2017-Oct-09 11:00N 47°43' W 122°32'0 0.0
2017-Oct-09 10:30N 47°43' W 122°32'0 0.0
2017-Oct-09 10:00N 47°43' W 122°32'0 0.0
2017-Oct-09 09:30N 47°43' W 122°32'0 0.0
2017-Oct-09 09:00N 47°43' W 122°32'0 0.0
2017-Oct-09 08:30N 47°43' W 122°32'0 0.0
2017-Oct-09 08:00N 47°43' W 122°32'0 0.0
2017-Oct-09 07:30N 47°43' W 122°32'0 0.0
2017-Oct-09 07:00N 47°43' W 122°32'0 0.1
2017-Oct-09 06:30N 47°43' W 122°32'0 0.0
2017-Oct-09 06:00N 47°43' W 122°32'0 0.1
2017-Oct-09 05:30N 47°43' W 122°32'0 0.0
2017-Oct-09 05:00N 47°43' W 122°32'0 0.0
2017-Oct-09 04:29N 47°43' W 122°32'0 0.0
2017-Oct-09 03:59N 47°43' W 122°32'0 0.0
2017-Oct-09 03:29N 47°43' W 122°32'0 0.0
2017-Oct-09 02:57N 47°43' W 122°32'0 0.0
2017-Oct-09 02:29N 47°43' W 122°32'0 0.0
2017-Oct-09 02:00N 47°43' W 122°32'0 0.1
2017-Oct-09 01:30N 47°43' W 122°32'0 0.1
2017-Oct-09 00:59N 47°43' W 122°32'0 0.0
2017-Oct-09 00:30N 47°43' W 122°32'0 0.0
2017-Oct-09 00:00N 47°43' W 122°32'0 0.0
2017-Oct-08 23:30N 47°43' W 122°32'0 0.0
2017-Oct-08 23:00N 47°43' W 122°32'0 0.0
2017-Oct-08 22:30N 47°43' W 122°32'0 0.0
2017-Oct-08 22:00N 47°43' W 122°32'0 0.1
2017-Oct-08 21:30N 47°43' W 122°32'1 0.4
2017-Oct-08 19:24N 47°42' W 122°32'1 2.2
2017-Oct-08 19:01N 47°43' W 122°32'2 4.2
2017-Oct-08 18:30N 47°44' W 122°29'3 5.5
2017-Oct-08 18:00N 47°47' W 122°28'3 6.4
2017-Oct-08 17:30N 47°50' W 122°29'3 5.6
2017-Oct-08 17:01N 47°52' W 122°30'1 2.6
2017-Oct-08 16:30N 47°54' W 122°30'2 4.7
2017-Oct-08 16:00N 47°56' W 122°32'3 4.9
2017-Oct-08 15:30N 47°58' W 122°34'2 4.6
2017-Oct-08 15:00N 47°57' W 122°31'2 4.9
2017-Oct-08 14:30N 47°55' W 122°29'2 4.7
2017-Oct-08 14:00N 47°53' W 122°28'2 4.7
2017-Oct-08 13:30N 47°50' W 122°27'3 5.2
2017-Oct-08 13:00N 47°48' W 122°26'2 4.4
2017-Oct-08 12:30N 47°46' W 122°25'2 4.4
2017-Oct-08 12:00N 47°44' W 122°26'2 4.2
2017-Oct-08 11:30N 47°42' W 122°27'2 3.6
2017-Oct-08 11:00N 47°40' W 122°27'2 4.1
2017-Oct-08 10:30N 47°38' W 122°27'2 4.7
2017-Oct-08 10:00N 47°35' W 122°26'2 4.0
2017-Oct-08 09:30N 47°33' W 122°27'3 5.2
2017-Oct-08 09:00N 47°31' W 122°29'3 5.9
2017-Oct-08 08:30N 47°28' W 122°30'3 5.9
2017-Oct-08 08:00N 47°26' W 122°31'3 6.4
2017-Oct-08 07:30N 47°22' W 122°32'4 7.8
2017-Oct-08 07:00N 47°19' W 122°33'4 8.0
2017-Oct-08 06:29N 47°14' W 122°34'4 6.2
2017-Oct-08 05:48N 47°11' W 122°37'2 5.4
2017-Oct-08 05:30N 47°10' W 122°39'3 5.6
2017-Oct-08 04:57N 47°07' W 122°42'3 5.8
2017-Oct-08 04:27N 47°09' W 122°45'3 5.8
2017-Oct-08 03:59N 47°11' W 122°48'3 4.8
2017-Oct-08 03:21N 47°10' W 122°52'2 4.9
2017-Oct-08 03:00N 47°10' W 122°55'2 3.6
2017-Oct-08 02:30N 47°12' W 122°56'1 2.2
2017-Oct-08 02:00N 47°12' W 122°57'1 2.7
2017-Oct-08 01:30N 47°12' W 122°59'1 1.9
2017-Oct-08 01:00N 47°12' W 123°01'2 3.2
2017-Oct-08 00:30N 47°12' W 123°03'1 2.4
2017-Oct-08 00:00N 47°13' W 123°04'0 0.6
2017-Oct-07 23:30N 47°13' W 123°05'0 1.0
2017-Oct-07 23:00N 47°13' W 123°04'0 0.0
2017-Oct-07 22:30N 47°13' W 123°04'0 0.0
2017-Oct-07 22:00N 47°13' W 123°04'0 0.1
2017-Oct-07 21:30N 47°13' W 123°04'0 0.0
2017-Oct-07 21:00N 47°13' W 123°04'0 0.1
2017-Oct-07 20:30N 47°13' W 123°04'0 0.0
2017-Oct-07 20:00N 47°13' W 123°04'0 0.1
2017-Oct-07 19:30N 47°13' W 123°04'0 0.1
2017-Oct-07 19:00N 47°13' W 123°04'0 0.1
2017-Oct-07 18:30N 47°13' W 123°04'0 0.1
2017-Oct-07 18:00N 47°13' W 123°04'0 0.0
2017-Oct-07 17:30N 47°13' W 123°04'0 0.1
2017-Oct-07 17:00N 47°13' W 123°04'1 2.8
2017-Oct-07 16:30N 47°14' W 123°03'1 1.8
2017-Oct-07 15:58N 47°15' W 123°02'0 0.0
2017-Oct-07 15:28N 47°15' W 123°02'0 0.0
2017-Oct-07 14:41N 47°15' W 123°02'0 0.0
2017-Oct-07 14:27N 47°15' W 123°02'0 0.0
2017-Oct-07 14:00N 47°15' W 123°02'  
Track history (hours):
 
Tides and Currents Weather Stations Pressure Air Temp Water Temp Dewpoint Dewpoint Depression Visibility Wind Speed Wind Dir Waves Ship Positions

Carolyn H

Owner: Boyer Towing, Inc., Ketchikan, AK. More information available from US FCC via Universal Licensing System and Coast Guard Vessel Documentation Center.

Last reported at 2017-Oct-17 13:30 UTC. Time now 2017-Oct-17 13:49 UTC.
Position N 47°32' W 122°20'.

Length 21 m; draft 2.2 m.

Type: Towing. MMSI: 367712860.

Date/timePositionNaut miles runAvg speedWind from/ knotsBaromVisibWave heightAir tempDewpointWater temp
2017-Oct-17 13:30N 47°32' W 122°20'0 0.3
2017-Oct-17 13:01N 47°32' W 122°20'0 0.0
2017-Oct-17 12:31N 47°32' W 122°20'0 0.0
2017-Oct-17 12:01N 47°32' W 122°20'0 0.0
2017-Oct-17 11:31N 47°32' W 122°20'0 0.0
2017-Oct-17 11:01N 47°32' W 122°20'0 0.0
2017-Oct-17 10:30N 47°32' W 122°20'0 0.0
2017-Oct-17 10:01N 47°32' W 122°20'0 0.0
2017-Oct-17 09:31N 47°32' W 122°20'0 0.0
2017-Oct-17 09:01N 47°32' W 122°20'0 0.0
2017-Oct-17 08:31N 47°32' W 122°20'0 0.0
2017-Oct-17 08:01N 47°32' W 122°20'0 0.0
2017-Oct-17 07:31N 47°32' W 122°20'0 0.0
2017-Oct-17 07:00N 47°32' W 122°20'0 0.0
2017-Oct-17 06:31N 47°32' W 122°20'0 0.0
2017-Oct-17 06:01N 47°32' W 122°20'0 0.0
2017-Oct-17 05:31N 47°32' W 122°20'0 0.0
2017-Oct-17 05:00N 47°32' W 122°20'0 0.0
2017-Oct-16 22:54N 47°32' W 122°20'0 0.4
2017-Oct-16 22:31N 47°32' W 122°19'0 0.6
2017-Oct-16 22:01N 47°32' W 122°20'0 0.1
2017-Oct-16 21:30N 47°32' W 122°20'0 0.0
2017-Oct-16 21:00N 47°32' W 122°20'  
2017-Oct-13 22:57N 47°32' W 122°20'0 0.2
2017-Oct-13 22:30N 47°32' W 122°20'0 0.0
2017-Oct-13 22:00N 47°32' W 122°20'0 0.4
2017-Oct-13 21:30N 47°32' W 122°19'0 0.2
2017-Oct-13 21:00N 47°32' W 122°19'0 0.9
2017-Oct-13 20:30N 47°32' W 122°20'0 1.0
2017-Oct-13 20:00N 47°32' W 122°19'0 0.7
2017-Oct-13 19:30N 47°32' W 122°20'0 0.0
2017-Oct-13 19:00N 47°32' W 122°20'0 0.4
2017-Oct-13 18:31N 47°32' W 122°19'0 0.4
2017-Oct-13 18:01N 47°32' W 122°20'0 0.4
2017-Oct-13 17:30N 47°32' W 122°19'0 0.7
2017-Oct-13 17:00N 47°32' W 122°20'0 0.6
2017-Oct-13 16:30N 47°32' W 122°19'0 0.5
2017-Oct-13 16:00N 47°32' W 122°20'0 0.1
2017-Oct-13 15:30N 47°32' W 122°20'0 0.0
2017-Oct-13 15:00N 47°32' W 122°20'2 4.2
2017-Oct-13 14:30N 47°34' W 122°21'1 2.3
2017-Oct-13 14:00N 47°35' W 122°21'0 0.0
2017-Oct-13 13:30N 47°35' W 122°21'3 6.0
2017-Oct-13 13:00N 47°32' W 122°20'0 0.4
2017-Oct-13 12:30N 47°32' W 122°20'0 0.0
2017-Oct-12 22:06N 47°32' W 122°20'0 0.8
2017-Oct-12 22:01N 47°32' W 122°20'0 0.1
2017-Oct-12 21:30N 47°32' W 122°20'0 0.1
2017-Oct-12 21:00N 47°32' W 122°20'0 0.2
2017-Oct-12 20:30N 47°32' W 122°20'0 0.1
2017-Oct-12 20:00N 47°32' W 122°20'0 0.1
2017-Oct-12 19:30N 47°32' W 122°20'0 0.0
2017-Oct-12 19:00N 47°32' W 122°20'0 0.5
2017-Oct-12 18:30N 47°32' W 122°19'0 0.5
2017-Oct-12 18:01N 47°32' W 122°20'0 0.0
2017-Oct-12 17:30N 47°32' W 122°20'0 0.0
2017-Oct-12 17:01N 47°32' W 122°20'0 0.1
2017-Oct-12 16:31N 47°32' W 122°20'1 1.7
2017-Oct-12 16:00N 47°33' W 122°20'2 4.0
2017-Oct-12 15:30N 47°35' W 122°22'0 0.9
2017-Oct-12 15:00N 47°34' W 122°21'2 4.7
2017-Oct-12 14:31N 47°32' W 122°20'2 3.4
2017-Oct-12 14:00N 47°34' W 122°21'2 4.4
2017-Oct-12 13:31N 47°36' W 122°23'1 1.6
2017-Oct-12 13:01N 47°35' W 122°22'3 6.8
2017-Oct-12 12:31N 47°32' W 122°20'0 0.0
2017-Oct-11 21:18N 47°32' W 122°20'0 0.4
2017-Oct-11 21:01N 47°32' W 122°20'0 0.0
2017-Oct-10 17:59N 47°32' W 122°20'0 0.5
2017-Oct-10 17:30N 47°32' W 122°19'0 0.1
2017-Oct-10 17:01N 47°32' W 122°19'0 0.5
2017-Oct-10 16:30N 47°32' W 122°20'0 0.0
2017-Oct-10 12:44N 47°32' W 122°20'0 0.0
2017-Oct-10 12:26N 47°32' W 122°20'0 0.7
2017-Oct-10 12:00N 47°32' W 122°20'3 5.6
2017-Oct-10 11:30N 47°35' W 122°22'3 6.8
2017-Oct-10 11:00N 47°38' W 122°25'3 6.6
2017-Oct-10 10:30N 47°40' W 122°28'3 6.5
2017-Oct-10 10:00N 47°43' W 122°28'3 6.8
2017-Oct-10 09:30N 47°47' W 122°28'3 7.0
2017-Oct-10 09:00N 47°50' W 122°29'3 6.6
2017-Oct-10 08:30N 47°53' W 122°30'3 5.5
2017-Oct-10 08:00N 47°55' W 122°33'3 5.1
2017-Oct-10 07:30N 47°57' W 122°36'2 4.6
2017-Oct-10 06:59N 47°59' W 122°38'2 3.8
2017-Oct-10 06:27N 48°01' W 122°39'16 4.6
2017-Oct-10 03:00N 48°11' W 122°57'3 6.9
2017-Oct-10 02:30N 48°11' W 123°02'4 6.8
2017-Oct-10 01:59N 48°10' W 123°07'1 2.7
2017-Oct-10 01:30N 48°10' W 123°09'1 0.8
2017-Oct-10 00:44N 48°09' W 123°09'0 0.0
2017-Oct-10 00:30N 48°09' W 123°09'0 0.0
2017-Oct-09 23:59N 48°09' W 123°09'0 0.0
2017-Oct-09 23:30N 48°09' W 123°09'0 0.0
2017-Oct-09 22:59N 48°09' W 123°09'1 1.2
2017-Oct-09 22:30N 48°10' W 123°09'1 1.1
2017-Oct-09 22:00N 48°10' W 123°08'1 2.6
2017-Oct-09 21:30N 48°11' W 123°07'1 2.4
2017-Oct-09 21:00N 48°11' W 123°05'1 2.3
2017-Oct-09 20:29N 48°10' W 123°03'1 2.0
2017-Oct-09 19:59N 48°11' W 123°02'1 2.3
2017-Oct-09 19:27N 48°11' W 122°60'2 3.4
2017-Oct-09 18:58N 48°11' W 122°57'16 6.0
2017-Oct-09 16:21N 48°03' W 122°37'3 6.8
2017-Oct-09 15:58N 48°00' W 122°36'3 7.1
2017-Oct-09 15:30N 47°57' W 122°33'3 6.9
2017-Oct-09 15:00N 47°55' W 122°29'3 6.2
2017-Oct-09 14:30N 47°52' W 122°28'3 5.4
2017-Oct-09 14:00N 47°50' W 122°27'3 5.8
2017-Oct-09 13:30N 47°47' W 122°26'3 5.4
2017-Oct-09 13:00N 47°44' W 122°27'3 5.2
2017-Oct-09 12:30N 47°43' W 122°31'1 1.9
2017-Oct-09 12:00N 47°43' W 122°32'0 0.0
2017-Oct-09 11:30N 47°43' W 122°32'0 0.0
2017-Oct-09 11:00N 47°43' W 122°32'0 0.0
2017-Oct-09 10:30N 47°43' W 122°32'0 0.0
2017-Oct-09 10:00N 47°43' W 122°32'0 0.0
2017-Oct-09 09:30N 47°43' W 122°32'0 0.0
2017-Oct-09 09:00N 47°43' W 122°32'0 0.0
2017-Oct-09 08:30N 47°43' W 122°32'0 0.0
2017-Oct-09 08:00N 47°43' W 122°32'0 0.0
2017-Oct-09 07:30N 47°43' W 122°32'0 0.0
2017-Oct-09 07:00N 47°43' W 122°32'0 0.1
2017-Oct-09 06:30N 47°43' W 122°32'0 0.0
2017-Oct-09 06:00N 47°43' W 122°32'0 0.1
2017-Oct-09 05:30N 47°43' W 122°32'0 0.0
2017-Oct-09 05:00N 47°43' W 122°32'0 0.0
2017-Oct-09 04:29N 47°43' W 122°32'0 0.0
2017-Oct-09 03:59N 47°43' W 122°32'0 0.0
2017-Oct-09 03:29N 47°43' W 122°32'0 0.0
2017-Oct-09 02:57N 47°43' W 122°32'0 0.0
2017-Oct-09 02:29N 47°43' W 122°32'0 0.0
2017-Oct-09 02:00N 47°43' W 122°32'0 0.1
2017-Oct-09 01:30N 47°43' W 122°32'0 0.1
2017-Oct-09 00:59N 47°43' W 122°32'0 0.0
2017-Oct-09 00:30N 47°43' W 122°32'0 0.0
2017-Oct-09 00:00N 47°43' W 122°32'0 0.0
2017-Oct-08 23:30N 47°43' W 122°32'0 0.0
2017-Oct-08 23:00N 47°43' W 122°32'0 0.0
2017-Oct-08 22:30N 47°43' W 122°32'0 0.0
2017-Oct-08 22:00N 47°43' W 122°32'0 0.1
2017-Oct-08 21:30N 47°43' W 122°32'1 0.4
2017-Oct-08 19:24N 47°42' W 122°32'1 2.2
2017-Oct-08 19:01N 47°43' W 122°32'2 4.2
2017-Oct-08 18:30N 47°44' W 122°29'3 5.5
2017-Oct-08 18:00N 47°47' W 122°28'3 6.4
2017-Oct-08 17:30N 47°50' W 122°29'3 5.6
2017-Oct-08 17:01N 47°52' W 122°30'1 2.6
2017-Oct-08 16:30N 47°54' W 122°30'2 4.7
2017-Oct-08 16:00N 47°56' W 122°32'3 4.9
2017-Oct-08 15:30N 47°58' W 122°34'2 4.6
2017-Oct-08 15:00N 47°57' W 122°31'2 4.9
2017-Oct-08 14:30N 47°55' W 122°29'2 4.7
2017-Oct-08 14:00N 47°53' W 122°28'2 4.7
2017-Oct-08 13:30N 47°50' W 122°27'3 5.2
2017-Oct-08 13:00N 47°48' W 122°26'2 4.4
2017-Oct-08 12:30N 47°46' W 122°25'2 4.4
2017-Oct-08 12:00N 47°44' W 122°26'2 4.2
2017-Oct-08 11:30N 47°42' W 122°27'2 3.6
2017-Oct-08 11:00N 47°40' W 122°27'2 4.1
2017-Oct-08 10:30N 47°38' W 122°27'2 4.7
2017-Oct-08 10:00N 47°35' W 122°26'2 4.0
2017-Oct-08 09:30N 47°33' W 122°27'3 5.2
2017-Oct-08 09:00N 47°31' W 122°29'3 5.9
2017-Oct-08 08:30N 47°28' W 122°30'3 5.9
2017-Oct-08 08:00N 47°26' W 122°31'3 6.4
2017-Oct-08 07:30N 47°22' W 122°32'4 7.8
2017-Oct-08 07:00N 47°19' W 122°33'4 8.0
2017-Oct-08 06:29N 47°14' W 122°34'4 6.2
2017-Oct-08 05:48N 47°11' W 122°37'2 5.4
2017-Oct-08 05:30N 47°10' W 122°39'3 5.6
2017-Oct-08 04:57N 47°07' W 122°42'3 5.8
2017-Oct-08 04:27N 47°09' W 122°45'3 5.8
2017-Oct-08 03:59N 47°11' W 122°48'3 4.8
2017-Oct-08 03:21N 47°10' W 122°52'2 4.9
2017-Oct-08 03:00N 47°10' W 122°55'2 3.6
2017-Oct-08 02:30N 47°12' W 122°56'1 2.2
2017-Oct-08 02:00N 47°12' W 122°57'1 2.7
2017-Oct-08 01:30N 47°12' W 122°59'1 1.9
2017-Oct-08 01:00N 47°12' W 123°01'2 3.2
2017-Oct-08 00:30N 47°12' W 123°03'1 2.4
2017-Oct-08 00:00N 47°13' W 123°04'0 0.6
2017-Oct-07 23:30N 47°13' W 123°05'0 1.0
2017-Oct-07 23:00N 47°13' W 123°04'0 0.0
2017-Oct-07 22:30N 47°13' W 123°04'0 0.0
2017-Oct-07 22:00N 47°13' W 123°04'0 0.1
2017-Oct-07 21:30N 47°13' W 123°04'0 0.0
2017-Oct-07 21:00N 47°13' W 123°04'0 0.1
2017-Oct-07 20:30N 47°13' W 123°04'0 0.0
2017-Oct-07 20:00N 47°13' W 123°04'0 0.1
2017-Oct-07 19:30N 47°13' W 123°04'0 0.1
2017-Oct-07 19:00N 47°13' W 123°04'0 0.1
2017-Oct-07 18:30N 47°13' W 123°04'0 0.1
2017-Oct-07 18:00N 47°13' W 123°04'0 0.0
2017-Oct-07 17:30N 47°13' W 123°04'0 0.1
2017-Oct-07 17:00N 47°13' W 123°04'1 2.8
2017-Oct-07 16:30N 47°14' W 123°03'1 1.8
2017-Oct-07 15:58N 47°15' W 123°02'0 0.0
2017-Oct-07 15:28N 47°15' W 123°02'0 0.0
2017-Oct-07 14:41N 47°15' W 123°02'0 0.0
2017-Oct-07 14:27N 47°15' W 123°02'0 0.0
2017-Oct-07 14:00N 47°15' W 123°02'  

Dump ship's entire track history